createdAt,value
2019-02-16T00:01:40.649Z,94.80
2019-02-16T00:04:10.115Z,95.00
2019-02-16T00:06:39.485Z,95.50
2019-02-16T00:09:08.845Z,95.60
2019-02-16T00:11:38.251Z,95.70
2019-02-16T00:14:07.580Z,95.80
2019-02-16T00:16:36.921Z,96.00
2019-02-16T00:19:06.452Z,96.00
2019-02-16T00:21:35.749Z,96.10
2019-02-16T00:24:05.237Z,96.30
2019-02-16T00:26:34.813Z,96.50
2019-02-16T00:29:04.188Z,96.60
2019-02-16T00:31:33.516Z,96.60
2019-02-16T00:34:03.090Z,96.70
2019-02-16T00:36:32.467Z,96.80
2019-02-16T00:39:01.820Z,96.80
2019-02-16T00:41:31.297Z,97.20
2019-02-16T00:44:00.674Z,96.80
2019-02-16T00:46:30.046Z,97.00
2019-02-16T00:48:59.453Z,97.40
2019-02-16T00:51:28.778Z,97.40
2019-02-16T00:53:58.239Z,97.50
2019-02-16T00:56:28.020Z,97.50
2019-02-16T00:58:57.305Z,97.50
2019-02-16T01:01:26.653Z,97.60
2019-02-16T01:03:56.317Z,97.70
2019-02-16T01:06:25.721Z,97.90
2019-02-16T01:08:54.993Z,98.00
2019-02-16T01:11:24.320Z,98.20
2019-02-16T01:13:54.198Z,98.50
2019-02-16T01:16:23.510Z,98.80
2019-02-16T01:18:52.913Z,98.80
2019-02-16T01:21:23.181Z,98.90
2019-02-16T01:23:52.768Z,98.70
2019-02-16T01:26:22.120Z,98.50
2019-02-16T01:28:51.464Z,98.50
2019-02-16T01:31:20.871Z,98.50
2019-02-16T01:33:50.282Z,98.60
2019-02-16T01:36:19.593Z,98.70
2019-02-16T01:38:48.914Z,98.70
2019-02-16T01:41:18.281Z,98.80
2019-02-16T01:43:47.577Z,98.80
2019-02-16T01:46:17.038Z,98.90
2019-02-16T01:48:46.581Z,98.90
2019-02-16T01:51:16.004Z,99.00
2019-02-16T01:53:45.341Z,99.20
2019-02-16T01:56:14.789Z,99.30
2019-02-16T01:58:44.190Z,99.50
2019-02-16T02:01:13.489Z,99.60
2019-02-16T02:03:42.852Z,99.60
2019-02-16T02:06:12.221Z,99.90
2019-02-16T02:08:41.659Z,99.70
2019-02-16T02:11:11.045Z,99.70
2019-02-16T02:13:40.417Z,99.60
2019-02-16T02:16:09.717Z,99.60
2019-02-16T02:18:39.192Z,99.50
2019-02-16T02:21:08.561Z,99.60
2019-02-16T02:23:37.966Z,99.70
2019-02-16T02:26:07.517Z,99.90
2019-02-16T02:28:36.980Z,99.70
2019-02-16T02:31:06.418Z,99.80
2019-02-16T02:33:35.803Z,99.90
2019-02-16T02:36:05.096Z,99.90
2019-02-16T02:38:34.414Z,99.90
2019-02-16T02:41:03.856Z,99.90
2019-02-16T02:43:33.233Z,99.90
2019-02-16T02:46:02.536Z,99.90
2019-02-16T02:48:31.848Z,99.90
2019-02-16T02:51:01.293Z,99.90
2019-02-16T02:53:31.689Z,99.90
2019-02-16T02:56:01.549Z,99.90
2019-02-16T02:58:30.884Z,99.90
2019-02-16T03:01:00.227Z,99.90
2019-02-16T03:03:29.757Z,99.90
2019-02-16T03:05:59.117Z,99.90
2019-02-16T03:08:28.586Z,99.90
2019-02-16T03:10:58.155Z,99.90
2019-02-16T03:13:27.437Z,99.90
2019-02-16T03:15:56.792Z,99.90
2019-02-16T03:18:26.256Z,99.90
2019-02-16T03:20:55.549Z,99.90
2019-02-16T03:23:25.029Z,99.90
2019-02-16T03:26:27.162Z,99.90
2019-02-16T03:29:03.794Z,99.90
2019-02-16T03:32:12.307Z,99.90
2019-02-16T03:34:55.863Z,99.90
2019-02-16T03:37:56.706Z,99.90
2019-02-16T03:40:25.994Z,99.90
2019-02-16T03:42:55.365Z,99.90
2019-02-16T03:45:24.784Z,99.90
2019-02-16T03:47:54.157Z,99.90
2019-02-16T03:50:23.508Z,99.90
2019-02-16T03:52:53.010Z,99.90
2019-02-16T03:55:22.397Z,99.90
2019-02-16T03:57:51.693Z,99.90
2019-02-16T04:00:21.421Z,99.90
2019-02-16T04:02:50.756Z,99.90
2019-02-16T04:05:20.178Z,99.90
2019-02-16T04:07:49.547Z,99.90
2019-02-16T04:10:18.847Z,99.90
2019-02-16T04:12:48.159Z,99.90
2019-02-16T04:15:17.520Z,99.90
2019-02-16T04:17:47.212Z,99.90
2019-02-16T04:20:16.592Z,99.90
2019-02-16T04:22:46.134Z,99.90
2019-02-16T04:25:15.504Z,99.90
2019-02-16T04:27:44.818Z,99.90
2019-02-16T04:30:14.277Z,99.90
2019-02-16T04:32:43.589Z,99.90
2019-02-16T04:35:12.922Z,99.90
2019-02-16T04:37:42.406Z,99.90
2019-02-16T04:40:11.813Z,99.90
2019-02-16T04:42:41.128Z,99.90
2019-02-16T04:45:10.437Z,99.90
2019-02-16T04:47:39.861Z,99.90
2019-02-16T04:50:09.242Z,99.90
2019-02-16T04:52:38.805Z,99.90
2019-02-16T04:55:08.653Z,99.90
2019-02-16T04:57:38.118Z,99.90
2019-02-16T05:00:08.550Z,99.90
2019-02-16T05:02:37.861Z,99.90
2019-02-16T05:05:07.237Z,99.90
2019-02-16T05:07:36.598Z,99.90
2019-02-16T05:10:06.558Z,99.90
2019-02-16T05:12:35.931Z,99.90
2019-02-16T05:15:05.365Z,99.90
2019-02-16T05:17:34.753Z,99.90
2019-02-16T05:20:04.485Z,99.90
2019-02-16T05:22:43.892Z,99.90
2019-02-16T05:25:05.152Z,99.90
2019-02-16T05:27:34.438Z,99.90
2019-02-16T05:30:03.829Z,99.90
2019-02-16T05:32:33.166Z,99.90
2019-02-16T05:35:02.541Z,99.90
2019-02-16T05:37:32.021Z,99.90
2019-02-16T05:40:01.360Z,99.90
2019-02-16T05:42:30.689Z,99.90
2019-02-16T05:45:00.371Z,99.90
2019-02-16T05:47:29.681Z,99.90
2019-02-16T05:49:58.985Z,99.90
2019-02-16T05:52:28.315Z,99.90
2019-02-16T05:54:57.604Z,99.90
2019-02-16T05:57:26.922Z,99.90
2019-02-16T05:59:56.457Z,99.90
2019-02-16T06:02:25.793Z,99.90
2019-02-16T06:04:55.079Z,99.90
2019-02-16T06:07:24.420Z,99.90
2019-02-16T06:09:53.894Z,99.90
2019-02-16T06:12:23.201Z,99.90
2019-02-16T06:14:52.651Z,99.90
2019-02-16T06:17:22.025Z,99.90
2019-02-16T06:19:51.405Z,99.90
2019-02-16T06:22:20.877Z,99.90
2019-02-16T06:24:50.230Z,99.90
2019-02-16T06:27:19.649Z,99.90
2019-02-16T06:29:49.273Z,99.90
2019-02-16T06:32:19.663Z,99.90
2019-02-16T06:34:51.349Z,99.90
2019-02-16T06:37:25.115Z,99.90
2019-02-16T06:39:54.471Z,99.90
2019-02-16T06:42:23.759Z,99.90
2019-02-16T06:44:53.294Z,99.90
2019-02-16T06:47:22.708Z,99.90
2019-02-16T06:49:52.249Z,99.90
2019-02-16T06:52:21.687Z,99.90
2019-02-16T06:54:50.977Z,99.90
2019-02-16T06:57:26.104Z,99.90
2019-02-16T06:59:55.497Z,99.90
2019-02-16T07:02:26.029Z,99.90
2019-02-16T07:04:55.402Z,99.90
2019-02-16T07:07:24.775Z,99.90
2019-02-16T07:09:54.178Z,99.90
2019-02-16T07:12:23.546Z,99.90
2019-02-16T07:14:52.845Z,99.90
2019-02-16T07:17:38.244Z,99.90
2019-02-16T07:20:08.492Z,99.90
2019-02-16T07:22:37.857Z,99.90
2019-02-16T07:25:07.757Z,99.90
2019-02-16T07:27:37.165Z,99.90
2019-02-16T07:30:08.035Z,99.90
2019-02-16T07:32:37.551Z,99.90
2019-02-16T07:35:07.487Z,99.90
2019-02-16T07:37:36.806Z,99.90
2019-02-16T07:40:06.337Z,99.90
2019-02-16T07:42:52.347Z,99.90
2019-02-16T07:45:41.128Z,99.90
2019-02-16T07:48:24.546Z,99.90
2019-02-16T07:51:00.728Z,99.90
2019-02-16T07:53:55.124Z,99.90
2019-02-16T07:56:29.196Z,99.90
2019-02-16T07:59:09.009Z,99.90
2019-02-16T08:02:09.616Z,99.90
2019-02-16T08:04:54.705Z,99.90
2019-02-16T08:07:52.270Z,99.90
2019-02-16T08:10:39.481Z,99.90
2019-02-16T08:13:30.471Z,99.90
2019-02-16T08:16:17.233Z,99.90
2019-02-16T08:19:17.783Z,99.90
2019-02-16T08:22:04.792Z,99.90
2019-02-16T08:25:02.173Z,99.90
2019-02-16T08:27:50.491Z,99.90
2019-02-16T08:30:41.992Z,99.90
2019-02-16T08:33:36.234Z,99.90
2019-02-16T08:36:28.297Z,99.90
2019-02-16T08:39:15.437Z,99.90
2019-02-16T08:42:02.231Z,99.90
2019-02-16T08:44:41.120Z,99.90
2019-02-16T08:47:18.605Z,99.90
2019-02-16T08:49:56.406Z,99.90
2019-02-16T08:52:38.371Z,99.90
2019-02-16T08:55:14.250Z,99.90
2019-02-16T08:58:11.384Z,99.90
2019-02-16T09:00:58.561Z,99.90
2019-02-16T09:03:47.078Z,99.90
2019-02-16T09:06:24.591Z,99.90
2019-02-16T09:09:14.375Z,99.90
2019-02-16T09:12:08.570Z,99.90
2019-02-16T09:15:00.532Z,99.90
2019-02-16T09:17:45.112Z,99.90
2019-02-16T09:20:39.885Z,99.50
2019-02-16T09:23:19.372Z,99.70
2019-02-16T09:26:10.596Z,98.60
2019-02-16T09:28:58.932Z,98.10
2019-02-16T09:31:42.269Z,97.40
2019-02-16T09:34:33.570Z,97.10
2019-02-16T09:37:11.733Z,97.30
2019-02-16T09:39:47.208Z,97.20
2019-02-16T09:42:53.566Z,96.60
2019-02-16T09:45:44.534Z,96.40
2019-02-16T09:48:34.177Z,96.60
2019-02-16T09:51:34.525Z,94.60
2019-02-16T09:54:20.858Z,91.70
2019-02-16T09:56:55.415Z,90.10
2019-02-16T09:59:35.161Z,87.70
2019-02-16T10:02:29.568Z,82.90
2019-02-16T10:05:17.919Z,81.50
2019-02-16T10:08:06.254Z,81.00
2019-02-16T10:10:57.510Z,80.80
2019-02-16T10:13:39.961Z,77.00
2019-02-16T10:16:18.093Z,74.90
2019-02-16T10:19:11.208Z,75.10
2019-02-16T10:21:58.468Z,76.90
2019-02-16T10:24:39.210Z,77.70
2019-02-16T10:27:30.505Z,79.00
2019-02-16T10:30:27.843Z,79.20
2019-02-16T10:33:09.481Z,79.50
2019-02-16T10:35:50.458Z,80.10
2019-02-16T10:38:48.132Z,82.10
2019-02-16T10:41:51.307Z,82.70
2019-02-16T10:44:35.857Z,82.90
2019-02-16T10:47:21.014Z,79.40
2019-02-16T10:50:13.854Z,76.20
2019-02-16T10:53:17.160Z,74.10
2019-02-16T10:56:05.126Z,73.90
2019-02-16T10:58:44.308Z,69.30
2019-02-16T11:01:23.094Z,65.70
2019-02-16T11:04:14.302Z,65.60
2019-02-16T11:07:05.225Z,66.00
2019-02-16T11:09:49.433Z,65.70
2019-02-16T11:12:52.682Z,63.20
2019-02-16T11:15:34.428Z,63.10
2019-02-16T11:18:21.396Z,63.20
2019-02-16T11:21:15.811Z,63.30
2019-02-16T11:24:06.950Z,62.40
2019-02-16T11:27:04.540Z,59.20
2019-02-16T11:30:05.172Z,60.20
2019-02-16T11:32:51.983Z,56.40
2019-02-16T11:35:33.023Z,56.90
2019-02-16T11:38:13.765Z,56.80
2019-02-16T11:41:01.584Z,56.10
2019-02-16T11:43:41.002Z,55.20
2019-02-16T11:46:31.968Z,56.30
2019-02-16T11:49:26.256Z,55.40
2019-02-16T11:52:13.710Z,55.70
2019-02-16T11:55:10.842Z,54.70
2019-02-16T11:58:07.726Z,53.70
2019-02-16T12:00:56.056Z,54.50
2019-02-16T12:03:33.680Z,55.60
2019-02-16T12:06:13.751Z,55.50
2019-02-16T12:09:02.098Z,55.80
2019-02-16T12:11:56.455Z,55.60
2019-02-16T12:14:49.778Z,55.00
2019-02-16T12:17:36.896Z,55.30
2019-02-16T12:20:22.119Z,54.80
2019-02-16T12:23:14.592Z,55.60
2019-02-16T12:25:53.060Z,55.80
2019-02-16T12:28:44.026Z,57.40
2019-02-16T12:31:25.693Z,58.20
2019-02-16T12:34:16.881Z,58.90
2019-02-16T12:37:05.270Z,57.80
2019-02-16T12:39:53.625Z,54.40
2019-02-16T12:42:41.177Z,54.00
2019-02-16T12:45:25.752Z,55.20
2019-02-16T12:48:20.290Z,55.00
2019-02-16T12:51:05.297Z,54.20
2019-02-16T12:53:52.361Z,56.40
2019-02-16T12:56:33.595Z,56.20
2019-02-16T12:59:11.705Z,58.20
2019-02-16T13:01:54.421Z,58.80
2019-02-16T13:04:41.318Z,61.20
2019-02-16T13:07:35.517Z,61.10
2019-02-16T13:10:23.037Z,62.00
2019-02-16T13:13:14.402Z,62.40
2019-02-16T13:15:54.542Z,62.60
2019-02-16T13:18:42.870Z,63.10
2019-02-16T13:21:43.237Z,64.30
2019-02-16T13:24:23.138Z,63.70
2019-02-16T13:27:11.645Z,64.00
2019-02-16T13:29:59.963Z,63.90
2019-02-16T13:32:45.578Z,64.70
2019-02-16T13:35:22.798Z,65.10
2019-02-16T13:38:14.422Z,64.90
2019-02-16T13:40:52.841Z,65.60
2019-02-16T13:43:44.004Z,65.00
2019-02-16T13:46:30.921Z,65.60
2019-02-16T13:49:10.330Z,65.70
2019-02-16T13:52:05.308Z,67.00
2019-02-16T13:54:56.869Z,67.90
2019-02-16T13:57:57.334Z,68.20
2019-02-16T14:00:31.617Z,66.60
2019-02-16T14:03:19.942Z,66.90
2019-02-16T14:06:11.462Z,67.50
2019-02-16T14:08:58.329Z,68.20
2019-02-16T14:11:35.042Z,68.30
2019-02-16T14:14:29.421Z,68.30
2019-02-16T14:17:17.293Z,68.90
2019-02-16T14:19:46.665Z,69.90
2019-02-16T14:22:15.963Z,69.30
2019-02-16T14:24:48.352Z,69.60
2019-02-16T14:27:17.657Z,69.90
2019-02-16T14:29:46.950Z,68.80
2019-02-16T14:32:16.394Z,69.90
2019-02-16T14:34:45.713Z,70.00
2019-02-16T14:37:36.988Z,70.70
2019-02-16T14:40:06.457Z,70.50
2019-02-16T14:42:35.865Z,69.20
2019-02-16T14:45:05.923Z,70.50
2019-02-16T14:47:35.237Z,70.20
2019-02-16T14:50:04.793Z,70.90
2019-02-16T14:52:34.265Z,71.00
2019-02-16T14:55:03.553Z,71.70
2019-02-16T14:57:32.926Z,71.70
2019-02-16T15:00:02.337Z,71.90
2019-02-16T15:02:31.645Z,71.50
2019-02-16T15:05:00.934Z,71.30
2019-02-16T15:07:30.343Z,71.00
2019-02-16T15:09:59.654Z,71.50
2019-02-16T15:12:28.950Z,71.90
2019-02-16T15:14:58.479Z,70.90
2019-02-16T15:17:27.866Z,71.90
2019-02-16T15:19:57.154Z,71.60
2019-02-16T15:22:26.616Z,72.60
2019-02-16T15:24:56.062Z,72.50
2019-02-16T15:27:25.437Z,70.80
2019-02-16T15:29:54.838Z,71.80
2019-02-16T15:32:24.142Z,72.10
2019-02-16T15:34:53.489Z,72.90
2019-02-16T15:37:22.860Z,73.50
2019-02-16T15:39:52.295Z,74.00
2019-02-16T15:42:21.821Z,74.00
2019-02-16T15:44:51.339Z,74.70
2019-02-16T15:47:20.757Z,75.20
2019-02-16T15:49:50.201Z,75.50
2019-02-16T15:52:19.816Z,75.70
2019-02-16T15:54:49.197Z,75.80
2019-02-16T15:57:18.565Z,75.20
2019-02-16T15:59:47.993Z,75.60
2019-02-16T16:02:17.414Z,76.10
2019-02-16T16:04:46.804Z,76.70
2019-02-16T16:07:17.725Z,76.70
2019-02-16T16:10:06.387Z,76.50
2019-02-16T16:12:57.805Z,77.10
2019-02-16T16:15:49.228Z,77.40
2019-02-16T16:18:43.037Z,78.40
2019-02-16T16:21:23.619Z,78.10
2019-02-16T16:24:01.637Z,78.50
2019-02-16T16:26:58.873Z,78.40
2019-02-16T16:29:45.963Z,78.60
2019-02-16T16:32:43.358Z,78.70
2019-02-16T16:35:19.774Z,79.10
2019-02-16T16:38:16.900Z,79.60
2019-02-16T16:40:58.684Z,80.20
2019-02-16T16:43:45.214Z,80.90
2019-02-16T16:46:28.689Z,81.00
2019-02-16T16:49:10.278Z,81.40
2019-02-16T16:51:57.050Z,81.80
2019-02-16T16:54:45.372Z,83.00
2019-02-16T16:57:26.663Z,82.60
2019-02-16T17:00:13.562Z,83.30
2019-02-16T17:03:01.092Z,84.00
2019-02-16T17:05:49.423Z,84.60
2019-02-16T17:08:37.637Z,85.10
2019-02-16T17:11:38.104Z,85.90
2019-02-16T17:14:16.249Z,86.40
2019-02-16T17:17:13.735Z,86.70
2019-02-16T17:20:01.342Z,87.00
2019-02-16T17:22:49.658Z,87.70
2019-02-16T17:25:38.184Z,88.00
2019-02-16T17:28:32.593Z,88.50
2019-02-16T17:31:19.953Z,88.90
2019-02-16T17:34:14.744Z,89.40
2019-02-16T17:37:06.117Z,89.30
2019-02-16T17:39:51.598Z,89.40
2019-02-16T17:42:33.651Z,89.90
2019-02-16T17:45:22.171Z,90.10
2019-02-16T17:48:03.268Z,90.20
2019-02-16T17:50:43.264Z,90.50
2019-02-16T17:53:23.674Z,90.60
2019-02-16T17:56:12.133Z,90.80
2019-02-16T17:58:59.012Z,91.10
2019-02-16T18:01:53.186Z,91.20
2019-02-16T18:04:35.522Z,91.40
2019-02-16T18:07:22.862Z,91.60
2019-02-16T18:10:06.349Z,91.70
2019-02-16T18:13:09.958Z,91.70
2019-02-16T18:15:54.723Z,91.70
2019-02-16T18:18:41.471Z,91.70
2019-02-16T18:21:28.656Z,92.00
2019-02-16T18:24:17.009Z,92.10
2019-02-16T18:26:59.519Z,92.40
2019-02-16T18:29:50.703Z,92.70
2019-02-16T18:32:41.222Z,92.80
2019-02-16T18:35:48.145Z,92.90
2019-02-16T18:38:45.758Z,93.40
2019-02-16T18:41:32.599Z,93.90
2019-02-16T18:44:11.727Z,94.10
2019-02-16T18:47:18.269Z,94.20
2019-02-16T18:50:06.608Z,94.20
2019-02-16T18:52:53.855Z,94.20
2019-02-16T18:55:54.251Z,94.20
2019-02-16T18:58:55.011Z,93.50
2019-02-16T19:01:43.388Z,93.50
2019-02-16T19:04:31.921Z,94.00
2019-02-16T19:07:10.505Z,94.40
2019-02-16T19:09:57.763Z,94.80
2019-02-16T19:12:45.173Z,94.80
2019-02-16T19:15:31.991Z,94.90
2019-02-16T19:18:13.280Z,95.10
2019-02-16T19:20:52.938Z,95.10
2019-02-16T19:23:40.226Z,95.00
2019-02-16T19:26:17.492Z,94.50
2019-02-16T19:29:11.957Z,94.60
2019-02-16T19:31:50.733Z,94.70
2019-02-16T19:34:35.251Z,94.80
2019-02-16T19:37:15.964Z,95.00
2019-02-16T19:40:01.096Z,95.20
2019-02-16T19:42:45.187Z,95.60
2019-02-16T19:45:23.998Z,95.80
2019-02-16T19:48:18.098Z,96.00
2019-02-16T19:51:09.397Z,95.70
2019-02-16T19:54:00.977Z,95.60
2019-02-16T19:56:59.388Z,95.30
2019-02-16T19:59:50.326Z,95.30
2019-02-16T20:02:44.410Z,95.40
2019-02-16T20:05:27.698Z,95.10
2019-02-16T20:08:27.701Z,95.40
2019-02-16T20:11:12.484Z,96.10
2019-02-16T20:13:51.941Z,96.40
2019-02-16T20:16:40.420Z,96.60
2019-02-16T20:19:20.496Z,97.20
2019-02-16T20:22:14.582Z,96.90
2019-02-16T20:25:01.182Z,97.00
2019-02-16T20:28:04.355Z,96.80
2019-02-16T20:31:01.720Z,96.90
2019-02-16T20:33:47.265Z,96.30
2019-02-16T20:36:47.590Z,96.40
2019-02-16T20:39:44.700Z,96.90
2019-02-16T20:42:31.657Z,97.20
2019-02-16T20:45:10.894Z,97.30
2019-02-16T20:47:46.274Z,97.00
2019-02-16T20:50:40.341Z,96.70
2019-02-16T20:53:24.855Z,96.70
2019-02-16T20:56:05.722Z,97.00
2019-02-16T20:58:59.738Z,97.20
2019-02-16T21:01:51.737Z,97.50
2019-02-16T21:04:37.519Z,97.80
2019-02-16T21:07:31.826Z,98.20
2019-02-16T21:10:20.186Z,98.40
2019-02-16T21:13:17.570Z,98.30
2019-02-16T21:16:08.677Z,98.20
2019-02-16T21:18:55.974Z,98.10
2019-02-16T21:21:44.303Z,97.70
2019-02-16T21:24:31.661Z,97.70
2019-02-16T21:27:18.858Z,97.90
2019-02-16T21:29:54.688Z,98.20
2019-02-16T21:32:58.107Z,98.40
2019-02-16T21:35:52.736Z,98.70
2019-02-16T21:38:44.054Z,99.10
2019-02-16T21:41:23.027Z,98.80
2019-02-16T21:44:04.781Z,98.60
2019-02-16T21:46:55.942Z,98.40
2019-02-16T21:49:47.333Z,98.40
2019-02-16T21:52:34.578Z,98.30
2019-02-16T21:55:21.601Z,98.40
2019-02-16T21:58:12.805Z,98.20
2019-02-16T22:00:59.833Z,98.40
2019-02-16T22:03:36.471Z,98.70
2019-02-16T22:06:43.147Z,98.80
2019-02-16T22:09:58.648Z,98.90
2019-02-16T22:12:58.625Z,98.90
2019-02-16T22:15:27.951Z,98.70
2019-02-16T22:17:57.304Z,98.70
2019-02-16T22:20:26.612Z,98.70
2019-02-16T22:22:55.929Z,98.70
2019-02-16T22:25:25.314Z,98.70
2019-02-16T22:27:54.619Z,99.00
2019-02-16T22:30:24.121Z,99.20
2019-02-16T22:32:53.539Z,99.30
2019-02-16T22:35:22.932Z,99.00
2019-02-16T22:37:52.258Z,98.60
2019-02-16T22:40:21.613Z,98.60
2019-02-16T22:42:50.902Z,98.80
2019-02-16T22:45:20.589Z,99.00
2019-02-16T22:47:49.992Z,99.30
2019-02-16T22:50:19.600Z,99.80
2019-02-16T22:52:49.122Z,99.90
2019-02-16T22:55:18.406Z,99.90
2019-02-16T22:57:47.758Z,99.90
2019-02-16T23:00:47.237Z,99.90
2019-02-16T23:03:17.318Z,99.90
2019-02-16T23:05:46.777Z,99.90
2019-02-16T23:08:16.429Z,99.90
2019-02-16T23:10:45.731Z,99.90
2019-02-16T23:13:15.106Z,99.90
2019-02-16T23:15:44.442Z,99.90
2019-02-16T23:18:13.841Z,99.90
2019-02-16T23:20:43.253Z,99.90
2019-02-16T23:23:12.597Z,99.90
2019-02-16T23:25:42.706Z,99.90
2019-02-16T23:28:12.093Z,99.90
2019-02-16T23:30:41.502Z,99.90
2019-02-16T23:33:10.808Z,99.90
2019-02-16T23:35:40.093Z,99.90
2019-02-16T23:38:09.657Z,99.90
2019-02-16T23:40:38.968Z,99.90
2019-02-16T23:43:08.340Z,99.90
2019-02-16T23:45:37.733Z,99.90
2019-02-16T23:48:07.197Z,99.90
2019-02-16T23:50:36.481Z,99.90
2019-02-16T23:53:06.073Z,99.90
2019-02-16T23:55:35.451Z,99.90
2019-02-16T23:58:04.845Z,99.90
